sensor_id;sensor_type;location;lat;lon;timestamp;pressure;altitude;pressure_sealevel;temperature;humidity
39949;BME280;29070;48.102;-1.652;2024-02-23T00:02:06;99310.72;;;5.86;75.63
39949;BME280;29070;48.102;-1.652;2024-02-23T00:07:07;99314.72;;;5.88;76.14
39949;BME280;29070;48.102;-1.652;2024-02-23T00:12:08;99303.50;;;5.88;76.10
39949;BME280;29070;48.102;-1.652;2024-02-23T00:17:08;99293.69;;;5.83;75.87
39949;BME280;29070;48.102;-1.652;2024-02-23T00:22:09;99295.09;;;5.86;76.20
39949;BME280;29070;48.102;-1.652;2024-02-23T00:27:10;99302.13;;;5.92;75.92
39949;BME280;29070;48.102;-1.652;2024-02-23T00:32:10;99297.09;;;5.90;76.20
39949;BME280;29070;48.102;-1.652;2024-02-23T00:37:10;99294.31;;;5.92;76.42
39949;BME280;29070;48.102;-1.652;2024-02-23T00:42:11;99304.53;;;6.00;76.25
39949;BME280;29070;48.102;-1.652;2024-02-23T00:47:11;99302.53;;;6.02;76.30
39949;BME280;29070;48.102;-1.652;2024-02-23T00:52:11;99307.75;;;6.02;76.29
39949;BME280;29070;48.102;-1.652;2024-02-23T00:57:12;99312.75;;;6.04;76.43
39949;BME280;29070;48.102;-1.652;2024-02-23T01:02:12;99300.13;;;6.07;76.45
39949;BME280;29070;48.102;-1.652;2024-02-23T01:07:12;99288.31;;;6.11;76.28
39949;BME280;29070;48.102;-1.652;2024-02-23T01:12:13;99287.91;;;6.15;76.35
39949;BME280;29070;48.102;-1.652;2024-02-23T01:17:14;99270.88;;;6.19;76.50
39949;BME280;29070;48.102;-1.652;2024-02-23T01:22:14;99265.66;;;6.19;76.27
39949;BME280;29070;48.102;-1.652;2024-02-23T01:27:15;99261.06;;;6.21;76.32
39949;BME280;29070;48.102;-1.652;2024-02-23T01:32:15;99258.22;;;6.22;76.37
39949;BME280;29070;48.102;-1.652;2024-02-23T01:37:15;99253.84;;;6.23;76.41
39949;BME280;29070;48.102;-1.652;2024-02-23T01:42:16;99240.22;;;6.21;76.43
39949;BME280;29070;48.102;-1.652;2024-02-23T01:47:16;99243.44;;;6.23;76.23
39949;BME280;29070;48.102;-1.652;2024-02-23T01:52:17;99231.97;;;6.24;76.10
39949;BME280;29070;48.102;-1.652;2024-02-23T01:57:17;99226.16;;;6.28;76.43
39949;BME280;29070;48.102;-1.652;2024-02-23T02:02:18;99228.56;;;6.30;76.47
39949;BME280;29070;48.102;-1.652;2024-02-23T02:07:19;99223.75;;;6.34;76.32
39949;BME280;29070;48.102;-1.652;2024-02-23T02:12:29;99210.94;;;6.32;76.15
39949;BME280;29070;48.102;-1.652;2024-02-23T02:17:29;99211.53;;;6.34;76.17
39949;BME280;29070;48.102;-1.652;2024-02-23T02:22:32;99207.72;;;6.30;76.14
39949;BME280;29070;48.102;-1.652;2024-02-23T02:27:33;99196.91;;;6.26;76.34
39949;BME280;29070;48.102;-1.652;2024-02-23T02:32:33;99197.53;;;6.22;76.14
39949;BME280;29070;48.102;-1.652;2024-02-23T02:37:34;99179.69;;;6.19;76.26
39949;BME280;29070;48.102;-1.652;2024-02-23T02:42:34;99156.06;;;6.14;75.98
39949;BME280;29070;48.102;-1.652;2024-02-23T02:47:35;99139.81;;;6.11;76.22
39949;BME280;29070;48.102;-1.652;2024-02-23T02:52:36;99135.63;;;6.10;76.12
39949;BME280;29070;48.102;-1.652;2024-02-23T02:57:37;99129.25;;;6.06;76.34
39949;BME280;29070;48.102;-1.652;2024-02-23T03:02:37;99136.03;;;6.07;76.50
39949;BME280;29070;48.102;-1.652;2024-02-23T03:07:38;99139.66;;;6.06;76.20
39949;BME280;29070;48.102;-1.652;2024-02-23T03:12:38;99138.25;;;6.10;76.24
39949;BME280;29070;48.102;-1.652;2024-02-23T03:17:38;99149.25;;;6.13;76.39
39949;BME280;29070;48.102;-1.652;2024-02-23T03:22:39;99154.66;;;6.11;76.23
39949;BME280;29070;48.102;-1.652;2024-02-23T03:27:39;99153.28;;;6.08;76.45
39949;BME280;29070;48.102;-1.652;2024-02-23T03:32:39;99154.47;;;6.06;76.38
39949;BME280;29070;48.102;-1.652;2024-02-23T03:37:40;99157.28;;;6.04;76.33
39949;BME280;29070;48.102;-1.652;2024-02-23T03:42:40;99160.91;;;6.03;76.53
39949;BME280;29070;48.102;-1.652;2024-02-23T03:47:40;99160.31;;;6.01;76.67
39949;BME280;29070;48.102;-1.652;2024-02-23T03:52:41;99152.50;;;6.01;76.59
39949;BME280;29070;48.102;-1.652;2024-02-23T03:57:41;99147.69;;;5.98;76.31
39949;BME280;29070;48.102;-1.652;2024-02-23T04:02:42;99147.69;;;5.98;76.45
39949;BME280;29070;48.102;-1.652;2024-02-23T04:07:42;99147.28;;;6.01;76.35
39949;BME280;29070;48.102;-1.652;2024-02-23T04:12:43;99135.44;;;5.99;76.60
39949;BME280;29070;48.102;-1.652;2024-02-23T04:17:45;99130.84;;;6.01;76.60
39949;BME280;29070;48.102;-1.652;2024-02-23T04:22:45;99131.06;;;5.99;76.31
39949;BME280;29070;48.102;-1.652;2024-02-23T04:27:46;99116.81;;;6.02;76.46
39949;BME280;29070;48.102;-1.652;2024-02-23T04:32:46;99113.22;;;6.03;76.48
39949;BME280;29070;48.102;-1.652;2024-02-23T04:37:47;99122.41;;;6.05;76.64
39949;BME280;29070;48.102;-1.652;2024-02-23T04:42:49;99129.63;;;6.10;76.57
39949;BME280;29070;48.102;-1.652;2024-02-23T04:47:49;99126.41;;;6.15;76.51
39949;BME280;29070;48.102;-1.652;2024-02-23T04:52:50;99126.00;;;6.18;76.60
39949;BME280;29070;48.102;-1.652;2024-02-23T04:57:50;99115.16;;;6.21;76.48
39949;BME280;29070;48.102;-1.652;2024-02-23T05:02:50;99109.13;;;6.20;76.61
39949;BME280;29070;48.102;-1.652;2024-02-23T05:07:51;99107.13;;;6.22;76.64
39949;BME280;29070;48.102;-1.652;2024-02-23T05:12:51;99107.94;;;6.23;76.70
39949;BME280;29070;48.102;-1.652;2024-02-23T05:17:51;99111.53;;;6.22;76.74
39949;BME280;29070;48.102;-1.652;2024-02-23T05:22:52;99123.56;;;6.23;76.93
39949;BME280;29070;48.102;-1.652;2024-02-23T05:27:52;99117.53;;;6.22;76.55
39949;BME280;29070;48.102;-1.652;2024-02-23T05:32:53;99117.97;;;6.19;76.89
39949;BME280;29070;48.102;-1.652;2024-02-23T05:37:53;99113.97;;;6.17;76.84
39949;BME280;29070;48.102;-1.652;2024-02-23T05:42:53;99111.56;;;6.15;77.13
39949;BME280;29070;48.102;-1.652;2024-02-23T05:47:54;99101.38;;;6.14;76.89
39949;BME280;29070;48.102;-1.652;2024-02-23T05:52:55;99102.94;;;6.15;77.17
39949;BME280;29070;48.102;-1.652;2024-02-23T05:57:55;99097.16;;;6.13;77.35
39949;BME280;29070;48.102;-1.652;2024-02-23T06:02:56;99101.78;;;6.10;76.82
39949;BME280;29070;48.102;-1.652;2024-02-23T06:07:56;99106.19;;;6.03;77.42
39949;BME280;29070;48.102;-1.652;2024-02-23T06:12:57;99102.41;;;5.99;77.12
39949;BME280;29070;48.102;-1.652;2024-02-23T06:17:57;99111.00;;;5.93;77.26
39949;BME280;29070;48.102;-1.652;2024-02-23T06:22:57;99115.22;;;5.94;77.34
39949;BME280;29070;48.102;-1.652;2024-02-23T06:27:58;99110.81;;;5.88;77.27
39949;BME280;29070;48.102;-1.652;2024-02-23T06:32:58;99104.03;;;5.87;77.19
39949;BME280;29070;48.102;-1.652;2024-02-23T06:37:59;99103.19;;;5.86;77.15
39949;BME280;29070;48.102;-1.652;2024-02-23T06:42:59;99090.22;;;5.80;77.36
39949;BME280;29070;48.102;-1.652;2024-02-23T06:48:00;99111.44;;;5.77;77.23
39949;BME280;29070;48.102;-1.652;2024-02-23T06:53:00;99112.44;;;5.76;77.14
39949;BME280;29070;48.102;-1.652;2024-02-23T06:58:00;99107.03;;;5.77;77.04
39949;BME280;29070;48.102;-1.652;2024-02-23T07:03:02;99104.41;;;5.77;76.93
39949;BME280;29070;48.102;-1.652;2024-02-23T07:08:04;99100.81;;;5.78;76.95
39949;BME280;29070;48.102;-1.652;2024-02-23T07:13:04;99105.63;;;5.75;77.30
39949;BME280;29070;48.102;-1.652;2024-02-23T07:18:05;99092.81;;;5.80;77.00
39949;BME280;29070;48.102;-1.652;2024-02-23T07:23:05;99100.19;;;5.83;77.13
39949;BME280;29070;48.102;-1.652;2024-02-23T07:28:06;99100.19;;;5.83;76.95
39949;BME280;29070;48.102;-1.652;2024-02-23T07:33:07;99100.59;;;5.86;77.27
39949;BME280;29070;48.102;-1.652;2024-02-23T07:38:07;99102.41;;;5.86;77.16
39949;BME280;29070;48.102;-1.652;2024-02-23T07:43:07;99109.00;;;5.95;77.34
39949;BME280;29070;48.102;-1.652;2024-02-23T07:48:09;99107.63;;;5.99;77.26
39949;BME280;29070;48.102;-1.652;2024-02-23T07:53:09;99122.63;;;6.04;77.22
39949;BME280;29070;48.102;-1.652;2024-02-23T07:58:09;99128.41;;;6.13;77.13
39949;BME280;29070;48.102;-1.652;2024-02-23T08:03:10;99130.19;;;6.19;77.32
39949;BME280;29070;48.102;-1.652;2024-02-23T08:08:12;99134.78;;;6.30;77.49
39949;BME280;29070;48.102;-1.652;2024-02-23T08:13:12;99148.19;;;6.34;77.33
39949;BME280;29070;48.102;-1.652;2024-02-23T08:18:12;99166.63;;;6.39;77.49
39949;BME280;29070;48.102;-1.652;2024-02-23T08:23:13;99159.53;;;6.53;77.18
39949;BME280;29070;48.102;-1.652;2024-02-23T08:28:13;99148.66;;;6.69;77.33
39949;BME280;29070;48.102;-1.652;2024-02-23T08:33:13;99146.38;;;6.79;77.25
39949;BME280;29070;48.102;-1.652;2024-02-23T08:38:14;99143.34;;;6.82;76.74
39949;BME280;29070;48.102;-1.652;2024-02-23T08:43:14;99132.09;;;6.89;76.67
39949;BME280;29070;48.102;-1.652;2024-02-23T08:48:15;99134.44;;;6.97;76.72
39949;BME280;29070;48.102;-1.652;2024-02-23T08:53:15;99137.84;;;6.97;76.43
39949;BME280;29070;48.102;-1.652;2024-02-23T08:58:15;99136.44;;;7.01;76.19
39949;BME280;29070;48.102;-1.652;2024-02-23T09:03:16;99131.31;;;7.13;76.39
39949;BME280;29070;48.102;-1.652;2024-02-23T09:08:16;99139.88;;;7.27;76.57
39949;BME280;29070;48.102;-1.652;2024-02-23T09:13:16;99134.75;;;7.39;76.20
39949;BME280;29070;48.102;-1.652;2024-02-23T09:18:17;99148.72;;;7.51;76.25
39949;BME280;29070;48.102;-1.652;2024-02-23T09:23:18;99149.75;;;7.69;76.76
39949;BME280;29070;48.102;-1.652;2024-02-23T09:28:19;99149.75;;;7.69;76.45
39949;BME280;29070;48.102;-1.652;2024-02-23T09:33:19;99145.78;;;7.66;76.10
39949;BME280;29070;48.102;-1.652;2024-02-23T09:38:19;99146.72;;;7.72;76.40
39949;BME280;29070;48.102;-1.652;2024-02-23T09:43:21;99142.25;;;7.79;76.13
39949;BME280;29070;48.102;-1.652;2024-02-23T09:48:23;99145.00;;;7.84;75.95
39949;BME280;29070;48.102;-1.652;2024-02-23T09:53:24;99149.66;;;7.82;75.57
39949;BME280;29070;48.102;-1.652;2024-02-23T09:58:25;99145.81;;;7.85;75.62
39949;BME280;29070;48.102;-1.652;2024-02-23T10:03:27;99132.84;;;7.96;75.45
39949;BME280;29070;48.102;-1.652;2024-02-23T10:08:30;99143.28;;;8.15;75.59
39949;BME280;29070;48.102;-1.652;2024-02-23T10:13:30;99152.16;;;8.14;75.54
39949;BME280;29070;48.102;-1.652;2024-02-23T10:18:31;99154.16;;;8.12;75.41
39949;BME280;29070;48.102;-1.652;2024-02-23T10:23:31;99142.41;;;8.02;74.86
39949;BME280;29070;48.102;-1.652;2024-02-23T10:28:32;99143.22;;;8.03;74.83
39949;BME280;29070;48.102;-1.652;2024-02-23T10:33:32;99139.81;;;8.21;74.87
39949;BME280;29070;48.102;-1.652;2024-02-23T10:38:32;99133.34;;;8.24;74.76
39949;BME280;29070;48.102;-1.652;2024-02-23T10:43:37;99133.69;;;8.27;74.40
39949;BME280;29070;48.102;-1.652;2024-02-23T10:48:43;99121.34;;;8.34;74.56
39949;BME280;29070;48.102;-1.652;2024-02-23T10:53:44;99121.81;;;8.50;72.94
39949;BME280;29070;48.102;-1.652;2024-02-23T10:58:46;99116.63;;;8.62;74.14
39949;BME280;29070;48.102;-1.652;2024-02-23T11:03:47;99117.09;;;8.70;74.36
39949;BME280;29070;48.102;-1.652;2024-02-23T11:08:50;99114.31;;;8.84;74.20
39949;BME280;29070;48.102;-1.652;2024-02-23T11:13:55;99114.91;;;8.86;73.95
39949;BME280;29070;48.102;-1.652;2024-02-23T11:19:06;99125.25;;;8.92;73.45
39949;BME280;29070;48.102;-1.652;2024-02-23T11:24:15;99126.72;;;9.30;72.97
39949;BME280;29070;48.102;-1.652;2024-02-23T11:29:18;99133.78;;;10.01;72.79
39949;BME280;29070;48.102;-1.652;2024-02-23T11:34:26;99125.84;;;10.24;72.24
39949;BME280;29070;48.102;-1.652;2024-02-23T11:39:29;99124.34;;;10.00;72.21
39949;BME280;29070;48.102;-1.652;2024-02-23T11:44:29;99129.72;;;9.69;72.18
39949;BME280;29070;48.102;-1.652;2024-02-23T11:49:30;99129.91;;;9.56;72.33
39949;BME280;29070;48.102;-1.652;2024-02-23T11:54:31;99129.47;;;9.35;71.96
39949;BME280;29070;48.102;-1.652;2024-02-23T11:59:32;99113.06;;;9.28;71.72
39949;BME280;29070;48.102;-1.652;2024-02-23T12:04:32;99106.56;;;9.31;71.68
39949;BME280;29070;48.102;-1.652;2024-02-23T12:09:33;99093.94;;;9.40;71.65
39949;BME280;29070;48.102;-1.652;2024-02-23T12:14:35;99082.41;;;9.76;71.49
39949;BME280;29070;48.102;-1.652;2024-02-23T12:19:39;99080.78;;;9.99;71.16
39949;BME280;29070;48.102;-1.652;2024-02-23T12:24:42;99076.00;;;9.96;71.23
39949;BME280;29070;48.102;-1.652;2024-02-23T12:29:51;99068.50;;;9.87;70.67
39949;BME280;29070;48.102;-1.652;2024-02-23T12:34:55;99063.16;;;9.82;70.50
39949;BME280;29070;48.102;-1.652;2024-02-23T12:39:56;99056.53;;;9.80;70.61
39949;BME280;29070;48.102;-1.652;2024-02-23T12:44:56;99048.56;;;9.86;70.70
39949;BME280;29070;48.102;-1.652;2024-02-23T12:49:56;99055.78;;;10.08;70.25
39949;BME280;29070;48.102;-1.652;2024-02-23T12:54:57;99051.50;;;10.30;69.88
39949;BME280;29070;48.102;-1.652;2024-02-23T12:59:57;99050.47;;;10.60;69.65
39949;BME280;29070;48.102;-1.652;2024-02-23T13:04:57;99036.16;;;10.51;68.63
39949;BME280;29070;48.102;-1.652;2024-02-23T13:09:58;99040.63;;;10.67;69.16
39949;BME280;29070;48.102;-1.652;2024-02-23T13:14:58;99031.13;;;10.95;69.13
39949;BME280;29070;48.102;-1.652;2024-02-23T13:19:58;99021.25;;;11.02;68.78
39949;BME280;29070;48.102;-1.652;2024-02-23T13:24:59;99012.25;;;10.81;68.67
39949;BME280;29070;48.102;-1.652;2024-02-23T13:29:59;99013.09;;;10.53;68.68
39949;BME280;29070;48.102;-1.652;2024-02-23T13:34:59;99014.66;;;10.37;68.70
39949;BME280;29070;48.102;-1.652;2024-02-23T13:40:04;99007.31;;;10.22;68.57
39949;BME280;29070;48.102;-1.652;2024-02-23T13:45:07;99006.03;;;9.96;68.17
39949;BME280;29070;48.102;-1.652;2024-02-23T13:50:07;99022.03;;;9.83;68.29
39949;BME280;29070;48.102;-1.652;2024-02-23T13:55:08;99022.84;;;9.71;68.16
39949;BME280;29070;48.102;-1.652;2024-02-23T14:00:09;99011.72;;;9.52;68.14
39949;BME280;29070;48.102;-1.652;2024-02-23T14:05:13;99008.41;;;9.45;68.24
39949;BME280;29070;48.102;-1.652;2024-02-23T14:10:13;99009.25;;;9.34;68.21
39949;BME280;29070;48.102;-1.652;2024-02-23T14:15:14;99009.69;;;9.19;68.51
39949;BME280;29070;48.102;-1.652;2024-02-23T14:20:14;99016.06;;;9.11;68.37
39949;BME280;29070;48.102;-1.652;2024-02-23T14:25:14;99012.97;;;8.91;67.87
39949;BME280;29070;48.102;-1.652;2024-02-23T14:30:15;99022.84;;;8.77;67.62
39949;BME280;29070;48.102;-1.652;2024-02-23T14:35:15;99034.19;;;8.59;67.40
39949;BME280;29070;48.102;-1.652;2024-02-23T14:40:15;99018.50;;;8.40;67.25
39949;BME280;29070;48.102;-1.652;2024-02-23T14:45:16;98973.06;;;8.84;67.51
39949;BME280;29070;48.102;-1.652;2024-02-23T14:50:16;98984.19;;;9.26;67.34
39949;BME280;29070;48.102;-1.652;2024-02-23T14:55:17;98972.56;;;9.22;67.46
39949;BME280;29070;48.102;-1.652;2024-02-23T15:00:17;98974.88;;;9.07;67.20
39949;BME280;29070;48.102;-1.652;2024-02-23T15:05:18;98979.53;;;9.05;67.22
39949;BME280;29070;48.102;-1.652;2024-02-23T15:10:19;98977.03;;;8.98;67.12
39949;BME280;29070;48.102;-1.652;2024-02-23T15:15:20;98989.06;;;8.75;67.26
39949;BME280;29070;48.102;-1.652;2024-02-23T15:20:22;99004.50;;;8.35;67.19
39949;BME280;29070;48.102;-1.652;2024-02-23T15:25:22;99011.41;;;7.99;67.19
39949;BME280;29070;48.102;-1.652;2024-02-23T15:30:24;99027.75;;;7.76;68.00
39949;BME280;29070;48.102;-1.652;2024-02-23T15:35:24;99037.19;;;7.58;67.99
39949;BME280;29070;48.102;-1.652;2024-02-23T15:40:26;99052.97;;;7.45;68.07
39949;BME280;29070;48.102;-1.652;2024-02-23T15:45:26;99035.09;;;7.23;68.69
39949;BME280;29070;48.102;-1.652;2024-02-23T15:50:27;99036.59;;;7.38;68.53
39949;BME280;29070;48.102;-1.652;2024-02-23T15:55:28;99016.78;;;7.49;68.74
39949;BME280;29070;48.102;-1.652;2024-02-23T16:00:29;99018.97;;;7.52;69.02
39949;BME280;29070;48.102;-1.652;2024-02-23T16:05:29;99030.06;;;7.47;68.80
39949;BME280;29070;48.102;-1.652;2024-02-23T16:10:30;99026.56;;;7.35;68.88
39949;BME280;29070;48.102;-1.652;2024-02-23T16:15:30;99026.94;;;7.38;69.10
39949;BME280;29070;48.102;-1.652;2024-02-23T16:20:31;99033.34;;;7.42;69.28
39949;BME280;29070;48.102;-1.652;2024-02-23T16:25:33;99028.91;;;7.43;69.44
39949;BME280;29070;48.102;-1.652;2024-02-23T16:30:33;99023.84;;;7.48;69.15
39949;BME280;29070;48.102;-1.652;2024-02-23T16:35:33;99024.84;;;7.47;69.54
39949;BME280;29070;48.102;-1.652;2024-02-23T16:40:34;99029.91;;;7.42;69.65
39949;BME280;29070;48.102;-1.652;2024-02-23T16:45:34;99028.66;;;7.26;69.07
39949;BME280;29070;48.102;-1.652;2024-02-23T16:50:35;99028.41;;;7.09;69.74
39949;BME280;29070;48.102;-1.652;2024-02-23T16:55:36;99040.13;;;7.00;69.60
39949;BME280;29070;48.102;-1.652;2024-02-23T17:00:36;99039.75;;;6.96;69.89
39949;BME280;29070;48.102;-1.652;2024-02-23T17:05:37;99039.78;;;6.90;69.57
39949;BME280;29070;48.102;-1.652;2024-02-23T17:10:37;99044.47;;;6.81;69.87
39949;BME280;29070;48.102;-1.652;2024-02-23T17:15:37;99047.34;;;6.73;70.19
39949;BME280;29070;48.102;-1.652;2024-02-23T17:20:38;99039.16;;;6.69;70.40
39949;BME280;29070;48.102;-1.652;2024-02-23T17:25:38;99045.38;;;6.68;70.26
39949;BME280;29070;48.102;-1.652;2024-02-23T17:30:41;99043.81;;;6.60;70.90
39949;BME280;29070;48.102;-1.652;2024-02-23T17:35:42;99043.25;;;6.52;70.64
39949;BME280;29070;48.102;-1.652;2024-02-23T17:40:42;99062.28;;;6.52;71.07
39949;BME280;29070;48.102;-1.652;2024-02-23T17:45:45;99068.44;;;6.26;70.86
39949;BME280;29070;48.102;-1.652;2024-02-23T17:50:46;99062.69;;;6.17;71.32
39949;BME280;29070;48.102;-1.652;2024-02-23T17:55:46;99068.69;;;6.11;71.19
39949;BME280;29070;48.102;-1.652;2024-02-23T18:00:46;99078.72;;;6.07;71.30
39949;BME280;29070;48.102;-1.652;2024-02-23T18:05:47;99082.00;;;5.96;71.45
39949;BME280;29070;48.102;-1.652;2024-02-23T18:10:48;99090.16;;;5.93;71.39
39949;BME280;29070;48.102;-1.652;2024-02-23T18:15:49;99095.19;;;5.88;71.53
39949;BME280;29070;48.102;-1.652;2024-02-23T18:20:49;99095.22;;;5.81;71.96
39949;BME280;29070;48.102;-1.652;2024-02-23T18:25:50;99099.25;;;5.64;72.28
39949;BME280;29070;48.102;-1.652;2024-02-23T18:30:50;99092.81;;;5.66;72.04
39949;BME280;29070;48.102;-1.652;2024-02-23T18:35:51;99104.47;;;5.64;71.91
39949;BME280;29070;48.102;-1.652;2024-02-23T18:40:51;99106.06;;;5.58;72.20
39949;BME280;29070;48.102;-1.652;2024-02-23T18:45:51;99096.84;;;5.49;72.15
39949;BME280;29070;48.102;-1.652;2024-02-23T18:50:52;99108.06;;;5.43;72.29
39949;BME280;29070;48.102;-1.652;2024-02-23T18:55:53;99112.09;;;5.39;72.44
39949;BME280;29070;48.102;-1.652;2024-02-23T19:00:53;99119.69;;;5.33;72.51
39949;BME280;29070;48.102;-1.652;2024-02-23T19:05:56;99129.50;;;5.31;72.65
39949;BME280;29070;48.102;-1.652;2024-02-23T19:10:57;99132.88;;;5.25;72.61
39949;BME280;29070;48.102;-1.652;2024-02-23T19:15:58;99133.28;;;5.22;72.65
39949;BME280;29070;48.102;-1.652;2024-02-23T19:20:58;99130.09;;;5.13;72.68
39949;BME280;29070;48.102;-1.652;2024-02-23T19:25:59;99128.84;;;5.09;72.97
39949;BME280;29070;48.102;-1.652;2024-02-23T19:30:59;99119.06;;;5.05;73.05
39949;BME280;29070;48.102;-1.652;2024-02-23T19:35:59;99115.84;;;4.96;73.08
39949;BME280;29070;48.102;-1.652;2024-02-23T19:41:02;99126.22;;;4.89;73.24
39949;BME280;29070;48.102;-1.652;2024-02-23T19:46:03;99137.44;;;4.90;73.10
39949;BME280;29070;48.102;-1.652;2024-02-23T19:51:03;99144.03;;;4.86;73.19
39949;BME280;29070;48.102;-1.652;2024-02-23T19:56:06;99148.00;;;4.75;73.47
39949;BME280;29070;48.102;-1.652;2024-02-23T20:01:07;99149.81;;;4.74;73.17
39949;BME280;29070;48.102;-1.652;2024-02-23T20:06:07;99147.59;;;4.71;73.80
39949;BME280;29070;48.102;-1.652;2024-02-23T20:11:12;99147.34;;;4.59;73.71
39949;BME280;29070;48.102;-1.652;2024-02-23T20:16:12;99146.31;;;4.54;73.92
39949;BME280;29070;48.102;-1.652;2024-02-23T20:21:13;99161.34;;;4.58;73.79
39949;BME280;29070;48.102;-1.652;2024-02-23T20:26:13;99163.34;;;4.56;73.76
39949;BME280;29070;48.102;-1.652;2024-02-23T20:31:13;99168.31;;;4.51;73.54
39949;BME280;29070;48.102;-1.652;2024-02-23T20:36:14;99175.31;;;4.51;73.88
39949;BME280;29070;48.102;-1.652;2024-02-23T20:41:14;99177.09;;;4.50;73.93
39949;BME280;29070;48.102;-1.652;2024-02-23T20:46:14;99179.44;;;4.45;73.94
39949;BME280;29070;48.102;-1.652;2024-02-23T20:51:15;99182.84;;;4.39;74.20
39949;BME280;29070;48.102;-1.652;2024-02-23T20:56:17;99174.63;;;4.35;74.17
39949;BME280;29070;48.102;-1.652;2024-02-23T21:01:17;99178.63;;;4.38;74.14
39949;BME280;29070;48.102;-1.652;2024-02-23T21:06:18;99191.59;;;4.38;74.32
39949;BME280;29070;48.102;-1.652;2024-02-23T21:11:19;99185.41;;;4.32;74.35
39949;BME280;29070;48.102;-1.652;2024-02-23T21:16:19;99200.38;;;4.30;74.36
39949;BME280;29070;48.102;-1.652;2024-02-23T21:21:19;99210.56;;;4.32;74.48
39949;BME280;29070;48.102;-1.652;2024-02-23T21:26:20;99212.16;;;4.26;74.30
39949;BME280;29070;48.102;-1.652;2024-02-23T21:31:21;99222.34;;;4.28;74.52
39949;BME280;29070;48.102;-1.652;2024-02-23T21:36:21;99223.69;;;4.24;74.68
39949;BME280;29070;48.102;-1.652;2024-02-23T21:41:22;99221.09;;;4.24;74.70
39949;BME280;29070;48.102;-1.652;2024-02-23T21:46:22;99212.69;;;4.22;74.55
39949;BME280;29070;48.102;-1.652;2024-02-23T21:51:22;99212.88;;;4.20;74.89
39949;BME280;29070;48.102;-1.652;2024-02-23T21:56:23;99205.88;;;4.14;74.85
39949;BME280;29070;48.102;-1.652;2024-02-23T22:01:23;99214.47;;;4.14;74.90
39949;BME280;29070;48.102;-1.652;2024-02-23T22:06:23;99220.25;;;4.16;74.93
39949;BME280;29070;48.102;-1.652;2024-02-23T22:11:24;99219.41;;;4.09;74.91
39949;BME280;29070;48.102;-1.652;2024-02-23T22:16:24;99219.56;;;4.01;75.00
39949;BME280;29070;48.102;-1.652;2024-02-23T22:21:26;99221.94;;;3.96;75.16
39949;BME280;29070;48.102;-1.652;2024-02-23T22:26:26;99225.25;;;3.90;75.16
39949;BME280;29070;48.102;-1.652;2024-02-23T22:31:26;99238.88;;;3.92;75.13
39949;BME280;29070;48.102;-1.652;2024-02-23T22:36:27;99235.84;;;3.88;75.14
39949;BME280;29070;48.102;-1.652;2024-02-23T22:41:27;99238.63;;;3.87;75.35
39949;BME280;29070;48.102;-1.652;2024-02-23T22:46:27;99240.63;;;3.85;75.11
39949;BME280;29070;48.102;-1.652;2024-02-23T22:51:28;99236.78;;;3.80;75.38
39949;BME280;29070;48.102;-1.652;2024-02-23T22:56:28;99249.75;;;3.80;75.29
39949;BME280;29070;48.102;-1.652;2024-02-23T23:01:28;99254.31;;;3.78;75.37
39949;BME280;29070;48.102;-1.652;2024-02-23T23:06:30;99256.69;;;3.73;75.48
39949;BME280;29070;48.102;-1.652;2024-02-23T23:11:30;99255.09;;;3.72;75.32
39949;BME280;29070;48.102;-1.652;2024-02-23T23:16:30;99252.50;;;3.72;75.41
39949;BME280;29070;48.102;-1.652;2024-02-23T23:21:31;99257.88;;;3.71;75.46
39949;BME280;29070;48.102;-1.652;2024-02-23T23:26:31;99256.06;;;3.71;75.23
39949;BME280;29070;48.102;-1.652;2024-02-23T23:31:32;99268.78;;;3.66;75.59
39949;BME280;29070;48.102;-1.652;2024-02-23T23:36:32;99264.78;;;3.63;75.60
39949;BME280;29070;48.102;-1.652;2024-02-23T23:41:32;99268.72;;;3.59;75.49
39949;BME280;29070;48.102;-1.652;2024-02-23T23:46:33;99288.06;;;3.57;75.47
39949;BME280;29070;48.102;-1.652;2024-02-23T23:51:33;99286.22;;;3.51;75.83
39949;BME280;29070;48.102;-1.652;2024-02-23T23:56:33;99282.97;;;3.49;75.80
